Аэропорт
Кишинев (LUKK)

 LUKK / KIV
vACC Молдова
Кишинев (LUUU)
Кишинев (LUUU)
 46.92770, 28.93100  / 399 ft

 LUKK 191100Z 16005KT 9999 FEW039 15/04 Q1020 R26/CLRD// NOSIG
 LUKK 182324Z 1900/1924 16008KT CAVOK BECMG 1918/1920 VRB03KT
Название сценария Тип сценария Flight Simulator 9 Flight Simulator X Prepar3D v2 Prepar3D v3 Prepar3D v4 xPlane
LUKK Chisinau X платный(+демо)


2019 © VATRUS division (Privacy Policy)